createdAt,value
2017-12-03T00:00:26.624Z,68.40
2017-12-03T00:02:54.733Z,68.50
2017-12-03T00:05:22.836Z,67.80
2017-12-03T00:07:51.721Z,68.00
2017-12-03T00:10:19.842Z,68.10
2017-12-03T00:12:47.940Z,67.60
2017-12-03T00:15:16.129Z,68.00
2017-12-03T00:17:44.238Z,67.90
2017-12-03T00:20:13.124Z,67.70
2017-12-03T00:22:41.235Z,67.50
2017-12-03T00:25:09.332Z,66.80
2017-12-03T00:27:37.440Z,67.00
2017-12-03T00:30:06.300Z,67.10
2017-12-03T00:32:35.303Z,67.00
2017-12-03T00:35:03.389Z,66.90
2017-12-03T00:37:32.259Z,67.60
2017-12-03T00:40:00.483Z,67.60
2017-12-03T00:42:29.325Z,67.80
2017-12-03T00:44:57.440Z,67.90
2017-12-03T00:47:25.561Z,67.90
2017-12-03T00:49:53.677Z,68.10
2017-12-03T00:52:21.869Z,67.90
2017-12-03T00:54:49.952Z,68.10
2017-12-03T00:57:18.060Z,67.60
2017-12-03T00:59:46.161Z,67.60
2017-12-03T01:02:15.068Z,67.90
2017-12-03T01:04:43.173Z,68.00
2017-12-03T01:07:11.287Z,68.00
2017-12-03T01:09:40.168Z,67.90
2017-12-03T01:12:08.301Z,67.90
2017-12-03T01:14:36.437Z,68.60
2017-12-03T01:17:06.316Z,68.00
2017-12-03T01:19:34.434Z,67.00
2017-12-03T01:22:02.560Z,68.60
2017-12-03T01:24:30.652Z,68.40
2017-12-03T01:26:58.774Z,67.80
2017-12-03T01:29:26.873Z,68.00
2017-12-03T01:31:55.031Z,67.90
2017-12-03T01:34:23.158Z,67.70
2017-12-03T01:36:52.028Z,66.90
2017-12-03T01:39:20.152Z,66.90
2017-12-03T01:41:48.248Z,67.40
2017-12-03T01:44:16.391Z,66.80
2017-12-03T01:46:45.251Z,67.40
2017-12-03T01:49:14.177Z,67.60
2017-12-03T01:51:42.758Z,67.60
2017-12-03T01:54:11.604Z,66.40
2017-12-03T01:56:39.705Z,66.40
2017-12-03T01:59:07.818Z,65.80
2017-12-03T02:01:36.785Z,66.20
2017-12-03T02:04:04.912Z,65.70
2017-12-03T02:06:33.046Z,66.70
2017-12-03T02:09:01.158Z,66.80
2017-12-03T02:11:29.300Z,67.00
2017-12-03T02:13:58.305Z,67.50
2017-12-03T02:16:26.455Z,67.40
2017-12-03T02:18:55.484Z,67.00
2017-12-03T02:21:23.595Z,67.50
2017-12-03T02:23:52.471Z,66.60
2017-12-03T02:26:21.341Z,66.60
2017-12-03T02:28:49.468Z,66.50
2017-12-03T02:31:17.574Z,67.40
2017-12-03T02:33:45.681Z,66.20
2017-12-03T02:36:13.795Z,66.30
2017-12-03T02:38:41.884Z,66.70
2017-12-03T02:41:10.004Z,66.60
2017-12-03T02:43:38.875Z,66.20
2017-12-03T02:46:06.972Z,66.10
2017-12-03T02:48:35.987Z,66.50
2017-12-03T02:51:04.833Z,67.20
2017-12-03T02:53:32.967Z,67.10
2017-12-03T02:56:01.078Z,67.10
2017-12-03T02:58:29.185Z,67.40
2017-12-03T03:00:58.077Z,68.00
2017-12-03T03:03:26.187Z,68.00
2017-12-03T03:05:54.292Z,67.80
2017-12-03T03:08:22.415Z,67.80
2017-12-03T03:10:51.295Z,68.30
2017-12-03T03:13:19.399Z,67.30
2017-12-03T03:15:47.520Z,67.40
2017-12-03T03:18:15.632Z,67.50
2017-12-03T03:20:43.781Z,67.10
2017-12-03T03:23:11.889Z,67.30
2017-12-03T03:25:40.033Z,67.00
2017-12-03T03:28:08.196Z,66.80
2017-12-03T03:30:36.343Z,66.30
2017-12-03T03:33:04.424Z,66.20
2017-12-03T03:35:33.316Z,66.90
2017-12-03T03:38:02.182Z,66.90
2017-12-03T03:40:30.320Z,67.00
2017-12-03T03:42:58.444Z,66.50
2017-12-03T03:45:27.310Z,67.30
2017-12-03T03:47:56.128Z,67.20
2017-12-03T03:50:25.019Z,67.50
2017-12-03T03:52:54.046Z,67.40
2017-12-03T03:55:22.885Z,67.60
2017-12-03T03:57:51.043Z,67.10
2017-12-03T04:00:19.137Z,67.40
2017-12-03T04:02:47.239Z,67.60
2017-12-03T04:05:15.360Z,67.40
2017-12-03T04:07:43.470Z,67.50
2017-12-03T04:10:12.332Z,67.10
2017-12-03T04:12:40.453Z,66.90
2017-12-03T04:15:08.561Z,66.60
2017-12-03T04:17:36.667Z,66.80
2017-12-03T04:20:04.780Z,66.80
2017-12-03T04:22:33.679Z,67.20
2017-12-03T04:25:01.773Z,67.10
2017-12-03T04:27:29.936Z,66.50
2017-12-03T04:29:58.048Z,66.10
2017-12-03T04:32:26.144Z,65.90
2017-12-03T04:34:54.268Z,65.60
2017-12-03T04:37:22.393Z,65.60
2017-12-03T04:39:50.496Z,65.50
2017-12-03T04:42:18.624Z,65.30
2017-12-03T04:44:47.489Z,64.70
2017-12-03T04:47:15.593Z,64.70
2017-12-03T04:49:44.482Z,65.50
2017-12-03T04:52:13.365Z,65.80
2017-12-03T04:54:41.457Z,65.90
2017-12-03T04:57:09.582Z,65.60
2017-12-03T04:59:37.695Z,65.30
2017-12-03T05:02:05.791Z,65.60
2017-12-03T05:04:33.926Z,66.00
2017-12-03T05:07:02.024Z,65.80
2017-12-03T05:09:30.137Z,65.70
2017-12-03T05:11:58.289Z,65.80
2017-12-03T05:14:27.154Z,66.60
2017-12-03T05:16:56.013Z,66.60
2017-12-03T05:19:24.160Z,66.40
2017-12-03T05:21:52.308Z,66.60
2017-12-03T05:24:21.156Z,66.40
2017-12-03T05:26:49.285Z,66.60
2017-12-03T05:29:17.384Z,67.00
2017-12-03T05:31:45.489Z,66.70
2017-12-03T05:34:14.388Z,65.80
2017-12-03T05:36:43.256Z,66.30
2017-12-03T05:39:11.357Z,66.30
2017-12-03T05:41:39.478Z,65.60
2017-12-03T05:44:07.581Z,65.90
2017-12-03T05:46:36.458Z,66.30
2017-12-03T05:49:04.588Z,65.50
2017-12-03T05:51:32.718Z,65.90
2017-12-03T05:54:00.809Z,65.30
2017-12-03T05:56:29.707Z,65.60
2017-12-03T05:58:57.807Z,65.40
2017-12-03T06:01:25.902Z,65.70
2017-12-03T06:03:54.012Z,65.40
2017-12-03T06:06:22.873Z,67.10
2017-12-03T06:08:50.971Z,67.00
2017-12-03T06:11:19.869Z,68.00
2017-12-03T06:13:48.739Z,68.40
2017-12-03T06:16:16.838Z,68.30
2017-12-03T06:18:44.957Z,69.10
2017-12-03T06:21:13.091Z,68.50
2017-12-03T06:23:41.933Z,71.60
2017-12-03T06:26:10.055Z,70.80
2017-12-03T06:28:38.169Z,70.50
2017-12-03T06:31:06.264Z,71.30
2017-12-03T06:33:34.401Z,71.80
2017-12-03T06:36:02.504Z,72.40
2017-12-03T06:38:30.596Z,72.10
2017-12-03T06:40:59.488Z,73.40
2017-12-03T06:43:28.364Z,73.00
2017-12-03T06:45:56.469Z,73.00
2017-12-03T06:48:24.593Z,72.80
2017-12-03T06:50:52.703Z,72.90
2017-12-03T06:53:21.568Z,73.60
2017-12-03T06:55:49.681Z,73.60
2017-12-03T06:58:17.818Z,74.00
2017-12-03T07:00:45.982Z,73.30
2017-12-03T07:03:14.163Z,73.60
2017-12-03T07:05:42.242Z,73.80
2017-12-03T07:08:10.365Z,74.70
2017-12-03T07:10:38.496Z,74.80
2017-12-03T07:13:07.379Z,75.30
2017-12-03T07:15:35.528Z,75.30
2017-12-03T07:18:03.640Z,74.50
2017-12-03T07:20:32.516Z,74.40
2017-12-03T07:23:00.626Z,74.20
2017-12-03T07:25:28.760Z,74.90
2017-12-03T07:27:56.900Z,75.50
2017-12-03T07:30:24.994Z,75.80
2017-12-03T07:32:53.120Z,75.90
2017-12-03T07:35:21.216Z,77.00
2017-12-03T07:37:49.321Z,76.90
2017-12-03T07:40:17.462Z,76.10
2017-12-03T07:42:45.562Z,76.00
2017-12-03T07:45:13.683Z,76.90
2017-12-03T07:47:41.785Z,77.10
2017-12-03T07:50:09.884Z,77.00
2017-12-03T07:52:37.990Z,77.50
2017-12-03T07:55:06.117Z,77.30
2017-12-03T07:57:34.217Z,76.90
2017-12-03T08:00:03.097Z,77.30
2017-12-03T08:02:31.238Z,77.50
2017-12-03T08:04:59.350Z,78.20
2017-12-03T08:07:27.437Z,78.40
2017-12-03T08:09:55.565Z,78.80
2017-12-03T08:12:23.677Z,78.10
2017-12-03T08:14:52.541Z,78.10
2017-12-03T08:17:20.680Z,77.80
2017-12-03T08:19:48.798Z,77.60
2017-12-03T08:22:16.921Z,77.50
2017-12-03T08:24:45.065Z,78.40
2017-12-03T08:27:13.930Z,77.70
2017-12-03T08:29:42.037Z,77.60
2017-12-03T08:32:10.180Z,77.70
2017-12-03T08:34:38.290Z,77.80
2017-12-03T08:37:06.396Z,77.00
2017-12-03T08:39:34.529Z,77.30
2017-12-03T08:42:02.632Z,77.00
2017-12-03T08:44:30.745Z,77.20
2017-12-03T08:46:59.648Z,77.90
2017-12-03T08:49:28.508Z,78.30
2017-12-03T08:51:56.596Z,78.00
2017-12-03T08:54:24.748Z,78.50
2017-12-03T08:56:52.845Z,78.80
2017-12-03T08:59:20.941Z,78.60
2017-12-03T09:01:49.877Z,79.10
2017-12-03T09:04:17.952Z,79.10
2017-12-03T09:06:46.060Z,79.80
2017-12-03T09:09:14.944Z,79.20
2017-12-03T09:11:43.050Z,79.20
2017-12-03T09:14:11.170Z,79.10
2017-12-03T09:16:39.280Z,79.90
2017-12-03T09:19:08.150Z,79.70
2017-12-03T09:21:36.264Z,79.60
2017-12-03T09:24:04.392Z,80.00
2017-12-03T09:26:32.480Z,79.80
2017-12-03T09:29:01.373Z,79.80
2017-12-03T09:31:30.268Z,79.80
2017-12-03T09:34:00.081Z,80.00
2017-12-03T09:36:28.953Z,80.00
2017-12-03T09:38:57.089Z,80.00
2017-12-03T09:41:25.213Z,80.40
2017-12-03T09:43:54.109Z,79.10
2017-12-03T09:46:22.988Z,79.60
2017-12-03T09:48:51.886Z,81.30
2017-12-03T09:51:20.757Z,79.70
2017-12-03T09:53:48.889Z,79.60
2017-12-03T09:56:17.013Z,80.00
2017-12-03T09:58:45.227Z,80.30
2017-12-03T10:01:14.104Z,80.30
2017-12-03T10:03:42.209Z,80.80
2017-12-03T10:06:10.321Z,80.40
2017-12-03T10:08:38.447Z,81.50
2017-12-03T10:11:06.549Z,80.60
2017-12-03T10:13:34.685Z,80.70
2017-12-03T10:16:02.801Z,81.30
2017-12-03T10:18:30.916Z,80.20
2017-12-03T10:20:59.024Z,81.20
2017-12-03T10:23:27.152Z,81.60
2017-12-03T10:25:56.014Z,82.00
2017-12-03T10:28:24.113Z,82.20
2017-12-03T10:30:52.997Z,82.30
2017-12-03T10:33:21.864Z,81.60
2017-12-03T10:35:49.984Z,81.50
2017-12-03T10:38:20.074Z,81.30
2017-12-03T10:40:48.942Z,82.30
2017-12-03T10:43:17.397Z,82.30
2017-12-03T10:45:45.509Z,82.60
2017-12-03T10:48:13.605Z,82.00
2017-12-03T10:50:42.471Z,81.70
2017-12-03T10:53:10.594Z,81.60
2017-12-03T10:55:39.461Z,80.10
2017-12-03T10:58:07.564Z,80.00
2017-12-03T11:00:35.699Z,81.30
2017-12-03T11:03:04.581Z,82.20
2017-12-03T11:05:33.449Z,83.10
2017-12-03T11:08:01.594Z,82.40
2017-12-03T11:10:29.701Z,82.50
2017-12-03T11:12:57.810Z,81.90
2017-12-03T11:15:25.933Z,82.50
2017-12-03T11:17:54.036Z,81.80
2017-12-03T11:20:22.902Z,82.70
2017-12-03T11:22:51.048Z,82.60
2017-12-03T11:25:19.150Z,82.10
2017-12-03T11:27:47.245Z,83.90
2017-12-03T11:30:16.151Z,84.50
2017-12-03T11:32:45.066Z,84.00
2017-12-03T11:35:13.160Z,83.80
2017-12-03T11:37:41.288Z,84.00
2017-12-03T11:40:10.157Z,84.10
2017-12-03T11:42:38.256Z,84.10
2017-12-03T11:45:06.396Z,83.60
2017-12-03T11:47:34.496Z,83.70
2017-12-03T11:50:03.521Z,83.90
2017-12-03T11:52:31.653Z,83.90
2017-12-03T11:55:00.553Z,84.40
2017-12-03T11:57:29.449Z,84.30
2017-12-03T11:59:57.565Z,84.00
2017-12-03T12:02:25.665Z,84.30
2017-12-03T12:04:53.800Z,84.40
2017-12-03T12:07:21.906Z,84.20
2017-12-03T12:09:50.050Z,84.60
2017-12-03T12:12:18.165Z,84.30
2017-12-03T12:14:46.293Z,84.30
2017-12-03T12:17:14.400Z,84.60
2017-12-03T12:19:42.504Z,83.70
2017-12-03T12:22:11.378Z,82.10
2017-12-03T12:24:40.592Z,82.00
2017-12-03T12:27:09.493Z,82.20
2017-12-03T12:29:37.585Z,82.40
2017-12-03T12:32:05.714Z,82.60
2017-12-03T12:34:33.821Z,83.30
2017-12-03T12:37:01.961Z,83.30
2017-12-03T12:39:30.848Z,82.70
2017-12-03T12:41:58.953Z,82.60
2017-12-03T12:44:27.075Z,82.90
2017-12-03T12:46:55.185Z,82.50
2017-12-03T12:49:24.070Z,82.80
2017-12-03T12:51:52.951Z,82.20
2017-12-03T12:54:22.132Z,82.80
2017-12-03T12:56:50.265Z,82.60
2017-12-03T12:59:18.401Z,83.10
2017-12-03T13:01:47.266Z,83.50
2017-12-03T13:04:15.369Z,83.60
2017-12-03T13:06:44.244Z,84.00
2017-12-03T13:09:12.359Z,84.00
2017-12-03T13:11:40.534Z,84.10
2017-12-03T13:14:08.646Z,83.80
2017-12-03T13:16:36.758Z,83.80
2017-12-03T13:19:05.629Z,84.00
2017-12-03T13:21:34.503Z,83.30
2017-12-03T13:24:02.617Z,83.40
2017-12-03T13:26:30.737Z,83.70
2017-12-03T13:28:58.830Z,84.20
2017-12-03T13:31:26.957Z,83.80
2017-12-03T13:33:55.831Z,84.50
2017-12-03T13:36:23.925Z,84.50
2017-12-03T13:38:52.207Z,84.20
2017-12-03T13:41:20.352Z,84.60
2017-12-03T13:43:48.399Z,84.80
2017-12-03T13:46:17.292Z,85.60
2017-12-03T13:48:46.159Z,85.00
2017-12-03T13:51:14.268Z,85.00
2017-12-03T13:53:43.153Z,84.50
2017-12-03T13:56:12.020Z,83.50
2017-12-03T13:58:40.185Z,83.50
2017-12-03T14:01:08.303Z,84.10
2017-12-03T14:03:36.417Z,84.10
2017-12-03T14:06:04.576Z,82.30
2017-12-03T14:08:32.735Z,82.80
2017-12-03T14:11:00.833Z,83.90
2017-12-03T14:13:28.942Z,84.70
2017-12-03T14:15:57.058Z,85.30
2017-12-03T14:18:25.157Z,85.50
2017-12-03T14:20:53.263Z,85.20
2017-12-03T14:23:22.148Z,85.70
2017-12-03T14:25:50.247Z,85.60
2017-12-03T14:28:18.357Z,84.90
2017-12-03T14:30:46.482Z,85.00
2017-12-03T14:33:15.346Z,85.80
2017-12-03T14:35:43.465Z,85.10
2017-12-03T14:38:11.585Z,85.20
2017-12-03T14:40:39.680Z,84.50
2017-12-03T14:43:08.550Z,83.00
2017-12-03T14:45:36.681Z,83.00
2017-12-03T14:48:04.781Z,83.30
2017-12-03T14:50:32.888Z,84.00
2017-12-03T14:53:01.777Z,84.00
2017-12-03T14:55:29.872Z,83.70
2017-12-03T14:57:58.017Z,84.10
2017-12-03T15:00:26.137Z,84.00
2017-12-03T15:02:54.240Z,83.90
2017-12-03T15:05:22.341Z,83.10
2017-12-03T15:07:50.478Z,82.00
2017-12-03T15:10:18.589Z,84.00
2017-12-03T15:12:47.455Z,83.70
2017-12-03T15:15:15.573Z,83.70
2017-12-03T15:17:43.764Z,83.40
2017-12-03T15:20:12.609Z,83.30
2017-12-03T15:22:40.757Z,83.20
2017-12-03T15:25:08.861Z,84.20
2017-12-03T15:27:37.741Z,83.70
2017-12-03T15:30:05.874Z,83.60
2017-12-03T15:32:33.992Z,83.80
2017-12-03T15:35:02.096Z,83.30
2017-12-03T15:37:30.241Z,84.30
2017-12-03T15:39:58.394Z,84.90
2017-12-03T15:42:26.510Z,84.70
2017-12-03T15:44:55.426Z,85.30
2017-12-03T15:47:23.545Z,85.10
2017-12-03T15:49:51.648Z,85.60
2017-12-03T15:52:20.578Z,84.50
2017-12-03T15:54:48.727Z,84.30
2017-12-03T15:57:16.825Z,84.90
2017-12-03T15:59:44.978Z,85.00
2017-12-03T16:02:13.071Z,85.10
2017-12-03T16:04:41.166Z,85.40
2017-12-03T16:07:09.310Z,85.40
2017-12-03T16:09:37.409Z,85.30
2017-12-03T16:12:05.504Z,85.30
2017-12-03T16:14:34.427Z,85.80
2017-12-03T16:17:02.529Z,85.70
2017-12-03T16:19:30.679Z,85.40
2017-12-03T16:21:59.561Z,84.10
2017-12-03T16:24:27.664Z,84.20
2017-12-03T16:26:55.769Z,84.60
2017-12-03T16:29:23.899Z,84.10
2017-12-03T16:31:52.001Z,84.30
2017-12-03T16:34:20.127Z,84.40
2017-12-03T16:36:48.265Z,84.60
2017-12-03T16:39:16.365Z,85.10
2017-12-03T16:41:44.473Z,85.20
2017-12-03T16:44:13.373Z,85.50
2017-12-03T16:46:41.515Z,85.00
2017-12-03T16:49:09.676Z,85.30
2017-12-03T16:51:38.578Z,84.40
2017-12-03T16:54:06.685Z,84.50
2017-12-03T16:56:34.841Z,85.00
2017-12-03T16:59:02.986Z,85.40
2017-12-03T17:01:31.857Z,86.20
2017-12-03T17:04:00.749Z,86.20
2017-12-03T17:06:29.652Z,84.60
2017-12-03T17:08:58.544Z,83.80
2017-12-03T17:11:27.412Z,83.50
2017-12-03T17:13:55.546Z,82.50
2017-12-03T17:16:23.646Z,83.70
2017-12-03T17:18:52.667Z,84.70
2017-12-03T17:21:20.798Z,84.60
2017-12-03T17:23:48.884Z,84.90
2017-12-03T17:26:16.997Z,84.00
2017-12-03T17:28:45.125Z,84.60
2017-12-03T17:31:13.229Z,84.50
2017-12-03T17:33:42.110Z,84.20
2017-12-03T17:36:11.006Z,83.70
2017-12-03T17:38:39.892Z,84.70
2017-12-03T17:41:07.980Z,84.50
2017-12-03T17:43:37.001Z,83.90
2017-12-03T17:46:05.104Z,84.00
2017-12-03T17:48:33.253Z,84.10
2017-12-03T17:51:01.381Z,83.10
2017-12-03T17:53:29.977Z,82.80
2017-12-03T17:55:58.853Z,83.70
2017-12-03T17:58:26.993Z,83.60
2017-12-03T18:00:55.097Z,84.00
2017-12-03T18:03:23.402Z,83.60
2017-12-03T18:05:51.569Z,84.80
2017-12-03T18:08:20.457Z,84.10
2017-12-03T18:10:49.441Z,83.90
2017-12-03T18:13:17.557Z,84.00
2017-12-03T18:15:45.658Z,83.50
2017-12-03T18:18:13.896Z,82.80
2017-12-03T18:20:42.025Z,83.50
2017-12-03T18:23:10.130Z,84.40
2017-12-03T18:25:38.229Z,85.10
2017-12-03T18:28:06.364Z,84.80
2017-12-03T18:30:35.255Z,84.20
2017-12-03T18:33:04.137Z,83.80
2017-12-03T18:35:33.062Z,84.10
2017-12-03T18:38:01.177Z,84.10
2017-12-03T18:40:29.277Z,84.80
2017-12-03T18:42:58.176Z,84.20
2017-12-03T18:45:27.040Z,83.20
2017-12-03T18:47:55.154Z,83.10
2017-12-03T18:50:23.301Z,83.50
2017-12-03T18:52:52.202Z,84.90
2017-12-03T18:55:21.096Z,85.00
2017-12-03T18:57:49.992Z,84.50
2017-12-03T19:00:18.900Z,83.90
2017-12-03T19:02:47.017Z,83.40
2017-12-03T19:05:15.143Z,82.80
2017-12-03T19:07:43.246Z,83.80
2017-12-03T19:10:11.361Z,83.70
2017-12-03T19:12:40.268Z,84.50
2017-12-03T19:15:08.365Z,84.70
2017-12-03T19:17:36.468Z,84.80
2017-12-03T19:20:04.617Z,84.30
2017-12-03T19:22:32.760Z,84.60
2017-12-03T19:25:01.609Z,84.80
2017-12-03T19:27:29.801Z,84.70
2017-12-03T19:29:58.681Z,82.20
2017-12-03T19:32:26.790Z,82.30
2017-12-03T19:34:54.960Z,82.70
2017-12-03T19:37:23.821Z,84.10
2017-12-03T19:39:51.977Z,84.20
2017-12-03T19:42:20.170Z,84.80
2017-12-03T19:44:48.336Z,83.80
2017-12-03T19:47:17.382Z,84.60
2017-12-03T19:49:45.516Z,84.70
2017-12-03T19:52:14.397Z,85.30
2017-12-03T19:54:42.582Z,85.20
2017-12-03T19:57:11.669Z,84.60
2017-12-03T19:59:39.768Z,84.30
2017-12-03T20:02:08.679Z,84.60
2017-12-03T20:04:36.832Z,84.80
2017-12-03T20:07:05.800Z,84.10
2017-12-03T20:09:33.950Z,84.20
2017-12-03T20:12:02.084Z,83.90
2017-12-03T20:14:30.259Z,84.50
2017-12-03T20:16:58.353Z,84.60
2017-12-03T20:19:27.179Z,84.70
2017-12-03T20:21:55.272Z,83.50
2017-12-03T20:24:24.153Z,84.00
2017-12-03T20:26:52.286Z,84.00
2017-12-03T20:29:20.398Z,83.60
2017-12-03T20:31:48.501Z,83.90
2017-12-03T20:34:16.685Z,83.10
2017-12-03T20:36:44.792Z,82.40
2017-12-03T20:39:12.896Z,82.60
2017-12-03T20:41:41.840Z,83.40
2017-12-03T20:44:09.977Z,82.60
2017-12-03T20:46:38.842Z,82.70
2017-12-03T20:49:07.020Z,82.80
2017-12-03T20:51:35.134Z,84.20
2017-12-03T20:54:03.245Z,83.70
2017-12-03T20:56:31.378Z,83.80
2017-12-03T20:58:59.482Z,83.50
2017-12-03T21:01:27.584Z,83.70
2017-12-03T21:03:55.728Z,82.80
2017-12-03T21:06:23.825Z,82.30
2017-12-03T21:08:51.941Z,82.70
2017-12-03T21:11:20.118Z,83.60
2017-12-03T21:13:48.220Z,83.10
2017-12-03T21:16:16.342Z,82.90
2017-12-03T21:18:45.230Z,83.50
2017-12-03T21:21:14.104Z,83.80
2017-12-03T21:23:42.200Z,83.70
2017-12-03T21:26:10.328Z,84.10
2017-12-03T21:28:38.416Z,83.10
2017-12-03T21:31:06.638Z,83.60
2017-12-03T21:33:34.772Z,83.80
2017-12-03T21:36:02.867Z,84.80
2017-12-03T21:38:30.974Z,84.50
2017-12-03T21:40:59.098Z,84.00
2017-12-03T21:43:27.970Z,84.50
2017-12-03T21:45:56.077Z,84.60
2017-12-03T21:48:24.201Z,84.20
2017-12-03T21:50:52.297Z,84.40
2017-12-03T21:53:20.406Z,84.50
2017-12-03T21:55:48.540Z,84.00
2017-12-03T21:58:16.634Z,84.40
2017-12-03T22:00:45.519Z,84.20
2017-12-03T22:03:14.414Z,84.70
2017-12-03T22:05:43.278Z,84.90
2017-12-03T22:08:11.385Z,84.80
2017-12-03T22:10:39.601Z,85.00
2017-12-03T22:13:07.729Z,84.60
2017-12-03T22:15:36.606Z,85.20
2017-12-03T22:18:04.825Z,85.30
2017-12-03T22:20:32.961Z,85.10
2017-12-03T22:23:01.889Z,82.80
2017-12-03T22:25:30.037Z,82.90
2017-12-03T22:27:58.181Z,82.90
2017-12-03T22:30:26.274Z,83.20
2017-12-03T22:32:55.292Z,83.20
2017-12-03T22:35:24.141Z,83.90
2017-12-03T22:37:52.244Z,83.60
2017-12-03T22:40:20.361Z,83.30
2017-12-03T22:42:48.510Z,83.20
2017-12-03T22:45:16.613Z,83.30
2017-12-03T22:47:44.724Z,84.00
2017-12-03T22:50:13.623Z,85.00
2017-12-03T22:52:42.501Z,85.00
2017-12-03T22:55:11.404Z,85.00
2017-12-03T22:57:40.264Z,84.60
2017-12-03T23:00:08.370Z,84.80
2017-12-03T23:02:36.501Z,85.00
2017-12-03T23:05:04.616Z,84.20
2017-12-03T23:07:33.477Z,84.50
2017-12-03T23:10:01.605Z,84.30
2017-12-03T23:12:29.769Z,84.60
2017-12-03T23:14:57.849Z,83.60
2017-12-03T23:17:26.118Z,83.90
2017-12-03T23:19:54.400Z,83.80
2017-12-03T23:22:22.713Z,82.70
2017-12-03T23:24:50.866Z,83.20
2017-12-03T23:27:18.945Z,82.90
2017-12-03T23:29:47.060Z,83.00
2017-12-03T23:32:15.954Z,83.50
2017-12-03T23:34:44.821Z,83.90
2017-12-03T23:37:12.955Z,83.60
2017-12-03T23:39:41.078Z,83.50
2017-12-03T23:42:09.196Z,83.00
2017-12-03T23:44:37.300Z,82.30
2017-12-03T23:47:05.423Z,82.30
2017-12-03T23:49:33.533Z,82.50
2017-12-03T23:52:01.642Z,83.60
2017-12-03T23:54:29.771Z,84.00
2017-12-03T23:56:57.887Z,83.30
2017-12-03T23:59:26.758Z,83.60
